Time;durP1;ratioP1;P1;durP2;ratioP2;P2;SDS_P1;SDS_P2;PMS_P1;PMS_P2;Temp;Humidity;BMP_temperature;BMP_pressure;BME280_temperature;BME280_humidity;BME280_pressure;Samples;Min_cycle;Max_cycle;Signal;HPM_P1;HPM_P2
2021/09/22 00:01:44;;;;;;;10.15;7.30;;;12.10;99.90;;;;;;5011152;28;20201;-56
2021/09/22 00:04:11;;;;;;;8.13;6.60;;;12.10;99.90;;;;;;5006219;28;20223;-61
2021/09/22 00:06:38;;;;;;;9.02;5.72;;;12.00;99.90;;;;;;5010033;28;20214;-58
2021/09/22 00:09:06;;;;;;;10.38;6.93;;;12.00;99.90;;;;;;5020826;28;20202;-57
2021/09/22 00:11:33;;;;;;;9.65;6.63;;;11.80;99.90;;;;;;5014132;28;20450;-57
2021/09/22 00:14:00;;;;;;;8.13;6.07;;;11.70;99.90;;;;;;5016206;28;20258;-57
2021/09/22 00:16:28;;;;;;;9.50;7.20;;;11.70;99.90;;;;;;5019932;28;20200;-56
2021/09/22 00:18:56;;;;;;;10.20;5.80;;;11.90;99.90;;;;;;5017737;28;20371;-56
2021/09/22 00:21:23;;;;;;;10.20;7.13;;;12.00;99.90;;;;;;5007225;28;20434;-54
2021/09/22 00:23:51;;;;;;;11.43;8.73;;;11.90;99.90;;;;;;5013105;28;20234;-53
2021/09/22 00:26:18;;;;;;;8.35;6.38;;;12.00;99.90;;;;;;5008974;28;20242;-53
2021/09/22 00:28:45;;;;;;;8.52;7.50;;;12.00;99.90;;;;;;5009712;28;20390;-53
2021/09/22 00:31:12;;;;;;;13.00;6.43;;;11.90;99.90;;;;;;5010776;28;20261;-54
2021/09/22 00:33:40;;;;;;;7.57;5.15;;;11.70;99.90;;;;;;5006600;28;20407;-55
2021/09/22 00:36:07;;;;;;;12.38;8.20;;;11.60;99.90;;;;;;5000587;28;20212;-54
2021/09/22 00:38:35;;;;;;;7.55;6.30;;;11.90;99.90;;;;;;5019933;28;20387;-55
2021/09/22 00:41:02;;;;;;;8.98;7.32;;;11.60;99.90;;;;;;5021059;28;20201;-56
2021/09/22 00:43:30;;;;;;;7.68;6.70;;;11.50;99.90;;;;;;5005917;28;20231;-54
2021/09/22 00:46:03;;;;;;;8.68;7.00;;;11.50;99.90;;;;;;5005203;28;20207;-56
2021/09/22 00:48:33;;;;;;;9.30;5.82;;;11.40;99.90;;;;;;5007340;28;20272;-54
2021/09/22 00:51:07;;;;;;;9.57;7.30;;;11.50;99.90;;;;;;5004146;28;20253;-52
2021/09/22 00:53:35;;;;;;;11.88;7.07;;;11.50;99.90;;;;;;5005518;28;20272;-55
2021/09/22 00:56:04;;;;;;;9.38;7.85;;;11.60;99.90;;;;;;5007121;28;20210;-55
2021/09/22 00:58:33;;;;;;;12.88;7.43;;;11.80;99.90;;;;;;5014043;28;20246;-58
2021/09/22 01:01:01;;;;;;;8.20;6.30;;;11.80;99.90;;;;;;5004793;28;20200;-56
2021/09/22 01:03:30;;;;;;;7.47;6.75;;;11.70;99.90;;;;;;5019887;28;20222;-52
2021/09/22 01:05:59;;;;;;;9.45;7.60;;;11.70;99.90;;;;;;5014073;28;20215;-56
2021/09/22 01:08:31;;;;;;;14.35;9.57;;;11.70;99.90;;;;;;5015520;28;20437;-53
2021/09/22 01:10:59;;;;;;;9.48;7.45;;;11.60;99.90;;;;;;5001545;28;20433;-55
2021/09/22 01:13:27;;;;;;;8.75;7.43;;;11.70;99.90;;;;;;5000308;28;20231;-56
2021/09/22 01:15:54;;;;;;;8.75;7.20;;;11.80;99.90;;;;;;5000724;28;20250;-58
2021/09/22 01:18:23;;;;;;;9.57;7.88;;;11.80;99.90;;;;;;5020012;28;20195;-54
2021/09/22 01:20:54;;;;;;;9.70;7.88;;;11.80;99.90;;;;;;5012081;28;20203;-56
2021/09/22 01:23:23;;;;;;;11.23;8.82;;;11.90;99.90;;;;;;5007736;28;20460;-56
2021/09/22 01:25:53;;;;;;;10.55;9.20;;;12.00;99.90;;;;;;5013073;28;20205;-59
2021/09/22 01:28:29;;;;;;;13.00;9.55;;;12.00;99.90;;;;;;5012811;28;20261;-55
2021/09/22 01:31:01;;;;;;;11.82;7.75;;;12.10;99.90;;;;;;5006266;28;20261;-55
2021/09/22 01:33:28;;;;;;;13.52;8.40;;;12.20;99.90;;;;;;5006585;28;20227;-55
2021/09/22 01:35:56;;;;;;;9.63;7.30;;;12.10;99.90;;;;;;5011242;28;20211;-56
2021/09/22 01:38:27;;;;;;;12.00;8.57;;;12.00;99.90;;;;;;5020098;28;20238;-55
2021/09/22 01:41:04;;;;;;;10.25;8.07;;;12.10;99.90;;;;;;5019770;28;20204;-55
2021/09/22 01:43:33;;;;;;;10.50;7.65;;;12.10;99.90;;;;;;5019205;28;20237;-57
2021/09/22 01:46:03;;;;;;;10.55;8.38;;;12.10;99.90;;;;;;5020113;28;20270;-52
2021/09/22 01:48:30;;;;;;;11.48;8.18;;;12.10;99.90;;;;;;5009895;28;20211;-55
2021/09/22 01:51:01;;;;;;;11.00;8.43;;;12.20;99.90;;;;;;5005180;28;20220;-54
2021/09/22 01:53:28;;;;;;;11.77;7.97;;;12.20;99.90;;;;;;5012552;28;20274;-58
2021/09/22 01:55:57;;;;;;;13.18;8.70;;;12.10;99.90;;;;;;5016392;28;20204;-57
2021/09/22 01:58:25;;;;;;;11.93;9.07;;;12.10;99.90;;;;;;5002730;28;20448;-55
2021/09/22 02:00:55;;;;;;;11.60;8.45;;;12.00;99.90;;;;;;5020198;28;20212;-57
2021/09/22 02:03:23;;;;;;;13.00;9.90;;;12.10;99.90;;;;;;5011637;28;20223;-55
2021/09/22 02:05:50;;;;;;;12.15;8.77;;;12.30;99.90;;;;;;5013434;28;20540;-56
2021/09/22 02:08:18;;;;;;;13.50;10.40;;;12.40;99.90;;;;;;5020130;28;20241;-51
2021/09/22 02:10:45;;;;;;;11.90;8.40;;;12.40;99.90;;;;;;5006163;28;20212;-56
2021/09/22 02:13:13;;;;;;;11.15;9.75;;;12.40;99.90;;;;;;5006127;28;20290;-56
2021/09/22 02:15:40;;;;;;;14.45;9.20;;;12.30;99.90;;;;;;5008583;28;20207;-57
2021/09/22 02:18:08;;;;;;;10.15;8.00;;;12.20;99.90;;;;;;5006314;28;20239;-56
2021/09/22 02:20:36;;;;;;;11.70;9.07;;;12.40;99.90;;;;;;5013410;28;20399;-55
2021/09/22 02:23:04;;;;;;;10.02;7.10;;;12.50;99.90;;;;;;5014907;28;20259;-51
2021/09/22 02:25:31;;;;;;;11.25;8.80;;;12.40;99.90;;;;;;5014779;28;20398;-57
2021/09/22 02:27:59;;;;;;;12.60;8.50;;;12.40;99.90;;;;;;5003029;28;20266;-55
2021/09/22 02:30:26;;;;;;;9.98;8.88;;;12.40;99.90;;;;;;5013309;28;20203;-54
2021/09/22 02:32:53;;;;;;;10.93;9.60;;;12.10;99.90;;;;;;5003352;28;20235;-54
2021/09/22 02:35:20;;;;;;;11.32;9.38;;;12.10;99.90;;;;;;5022010;28;20211;-57
2021/09/22 02:37:48;;;;;;;13.90;10.07;;;12.10;99.90;;;;;;5022719;28;20517;-56
2021/09/22 02:40:17;;;;;;;11.20;8.32;;;12.00;99.90;;;;;;5019258;28;20207;-58
2021/09/22 02:42:46;;;;;;;11.00;7.95;;;12.00;99.90;;;;;;5026654;22;20230;-53
2021/09/22 02:45:14;;;;;;;10.88;9.55;;;11.80;99.90;;;;;;4999224;28;20227;-56
2021/09/22 02:47:42;;;;;;;11.40;8.65;;;12.00;99.90;;;;;;5002550;28;20286;-56
2021/09/22 02:50:12;;;;;;;12.35;8.35;;;11.80;99.90;;;;;;5007117;28;20513;-56
2021/09/22 02:52:40;;;;;;;12.98;8.85;;;11.80;99.90;;;;;;5008243;28;20269;-53
2021/09/22 02:55:07;;;;;;;13.88;9.38;;;12.00;99.90;;;;;;5005934;28;20241;-52
2021/09/22 02:57:34;;;;;;;14.32;9.82;;;12.00;99.90;;;;;;5021786;28;20734;-56
2021/09/22 03:00:07;;;;;;;14.68;9.88;;;11.90;99.90;;;;;;5012781;28;20262;-52
2021/09/22 03:02:35;;;;;;;10.82;8.55;;;11.80;99.90;;;;;;5020527;28;20226;-54
2021/09/22 03:05:03;;;;;;;11.77;8.45;;;11.80;99.90;;;;;;5015205;28;20245;-56
2021/09/22 03:07:30;;;;;;;11.63;8.23;;;11.70;99.90;;;;;;5007574;28;20206;-57
2021/09/22 03:09:57;;;;;;;13.30;8.27;;;11.70;99.90;;;;;;5012403;28;20480;-57
2021/09/22 03:12:24;;;;;;;8.68;7.70;;;11.90;99.90;;;;;;5017310;28;20244;-54
2021/09/22 03:14:54;;;;;;;10.45;8.85;;;11.70;99.90;;;;;;5021682;28;20406;-53
2021/09/22 03:17:21;;;;;;;11.77;8.48;;;11.70;99.90;;;;;;5021228;28;20203;-58
2021/09/22 03:19:49;;;;;;;12.40;8.65;;;11.60;99.90;;;;;;5002187;28;20212;-56
2021/09/22 03:22:17;;;;;;;12.38;8.55;;;11.70;99.90;;;;;;5002482;28;20200;-58
2021/09/22 03:24:44;;;;;;;12.65;10.25;;;11.70;99.90;;;;;;5006715;28;20206;-56
2021/09/22 03:27:11;;;;;;;11.68;8.15;;;11.70;99.90;;;;;;5013736;28;20208;-57
2021/09/22 03:29:39;;;;;;;13.75;9.60;;;11.70;99.90;;;;;;5009763;28;20571;-56
2021/09/22 03:32:06;;;;;;;15.60;10.20;;;11.70;99.90;;;;;;5010785;28;20527;-53
2021/09/22 03:34:34;;;;;;;14.43;9.38;;;11.70;99.90;;;;;;5015302;28;20227;-56
2021/09/22 03:37:00;;;;;;;11.38;8.23;;;11.60;99.90;;;;;;5007982;28;20243;-53
2021/09/22 03:39:28;;;;;;;15.38;9.13;;;11.50;99.90;;;;;;5006325;28;20428;-59
2021/09/22 03:41:56;;;;;;;13.52;10.05;;;11.60;99.90;;;;;;5010628;28;20412;-55
2021/09/22 03:44:25;;;;;;;9.75;7.95;;;11.50;99.90;;;;;;5008920;28;20572;-56
2021/09/22 03:46:53;;;;;;;10.25;7.82;;;11.50;99.90;;;;;;5006111;28;20254;-58
2021/09/22 03:49:21;;;;;;;11.57;9.88;;;11.60;99.90;;;;;;5008873;28;20466;-56
2021/09/22 03:51:49;;;;;;;15.50;10.65;;;11.50;99.90;;;;;;5018470;28;20265;-56
2021/09/22 03:54:16;;;;;;;13.70;10.98;;;11.50;99.90;;;;;;5019872;28;20227;-55
2021/09/22 03:56:43;;;;;;;14.38;10.75;;;11.70;99.90;;;;;;5007809;28;20488;-55
2021/09/22 03:59:11;;;;;;;13.45;11.20;;;11.50;99.90;;;;;;5011338;28;20561;-56
2021/09/22 04:01:38;;;;;;;12.57;9.80;;;11.40;99.90;;;;;;5001928;28;20200;-55
2021/09/22 04:04:06;;;;;;;10.82;8.50;;;11.30;99.90;;;;;;5020543;28;20296;-58
2021/09/22 04:06:34;;;;;;;8.35;7.20;;;11.30;99.90;;;;;;5010846;28;20251;-54
2021/09/22 04:09:01;;;;;;;9.75;7.90;;;11.30;99.90;;;;;;5008184;28;20210;-54
2021/09/22 04:11:28;;;;;;;10.60;7.07;;;11.20;99.90;;;;;;5015636;28;20221;-57
2021/09/22 04:13:55;;;;;;;10.60;8.85;;;11.30;99.90;;;;;;5010642;28;20222;-56
2021/09/22 04:16:22;;;;;;;10.10;7.80;;;11.30;99.90;;;;;;5010783;28;20199;-57
2021/09/22 04:18:49;;;;;;;9.20;7.15;;;11.30;99.90;;;;;;5008991;28;20279;-56
2021/09/22 04:21:17;;;;;;;10.02;7.38;;;11.20;99.90;;;;;;5007791;28;20222;-60
2021/09/22 04:23:44;;;;;;;9.07;7.22;;;11.20;99.90;;;;;;5019699;28;20226;-61
2021/09/22 04:26:11;;;;;;;10.10;7.10;;;11.10;99.90;;;;;;5020271;28;20258;-56
2021/09/22 04:28:38;;;;;;;10.93;7.68;;;11.10;99.90;;;;;;5019996;28;20206;-54
2021/09/22 04:31:05;;;;;;;12.85;7.78;;;11.10;99.90;;;;;;5020361;28;20207;-54
2021/09/22 04:33:33;;;;;;;9.13;7.28;;;11.10;99.90;;;;;;5013075;28;20230;-57
2021/09/22 04:36:00;;;;;;;10.02;7.53;;;11.10;99.90;;;;;;5018594;28;20210;-55
2021/09/22 04:38:27;;;;;;;9.73;7.50;;;11.10;99.90;;;;;;5015490;28;20250;-55
2021/09/22 04:40:57;;;;;;;8.45;7.00;;;11.20;99.90;;;;;;5017432;28;20199;-55
2021/09/22 04:43:25;;;;;;;9.05;8.02;;;11.20;99.90;;;;;;5005175;28;20292;-55
2021/09/22 04:45:52;;;;;;;8.98;7.25;;;11.10;99.90;;;;;;5019876;28;20213;-58
2021/09/22 04:48:20;;;;;;;9.07;6.47;;;11.00;99.90;;;;;;5019774;28;20211;-60
2021/09/22 04:50:47;;;;;;;8.98;7.75;;;11.00;99.90;;;;;;5019978;28;20207;-58
2021/09/22 04:53:15;;;;;;;9.02;7.22;;;11.10;99.90;;;;;;5019249;28;20261;-59
2021/09/22 04:55:42;;;;;;;14.82;9.00;;;11.00;99.90;;;;;;5007215;28;20202;-57
2021/09/22 04:58:09;;;;;;;17.08;10.18;;;10.90;99.90;;;;;;5020116;28;20524;-58
2021/09/22 05:00:37;;;;;;;12.10;9.20;;;10.90;99.90;;;;;;5007035;28;20407;-58
2021/09/22 05:03:04;;;;;;;15.00;11.50;;;10.90;99.90;;;;;;5011595;28;20223;-57
2021/09/22 05:05:33;;;;;;;12.93;9.80;;;10.90;99.90;;;;;;5018947;28;20213;-58
2021/09/22 05:08:00;;;;;;;16.20;11.15;;;10.90;99.90;;;;;;5008586;28;20683;-57
2021/09/22 05:10:28;;;;;;;14.52;9.98;;;10.90;99.90;;;;;;5014630;28;20209;-57
2021/09/22 05:12:57;;;;;;;11.73;9.13;;;10.90;99.90;;;;;;5011442;28;20227;-57
2021/09/22 05:15:25;;;;;;;14.05;9.80;;;11.00;99.90;;;;;;5012875;28;20401;-59
2021/09/22 05:17:54;;;;;;;15.90;10.32;;;11.20;99.90;;;;;;5003557;28;20201;-57
2021/09/22 05:20:22;;;;;;;13.23;9.50;;;11.20;99.90;;;;;;5010012;28;20198;-59
2021/09/22 05:22:49;;;;;;;11.27;8.85;;;11.20;99.90;;;;;;5010713;28;20226;-61
2021/09/22 05:25:16;;;;;;;10.23;7.45;;;11.20;99.90;;;;;;5011816;28;20208;-60
2021/09/22 05:27:44;;;;;;;11.30;8.35;;;11.10;99.90;;;;;;5008518;28;20209;-61
2021/09/22 05:30:11;;;;;;;9.10;7.25;;;11.10;99.90;;;;;;5007794;28;20237;-61
2021/09/22 05:32:39;;;;;;;8.25;6.05;;;11.20;99.90;;;;;;5013112;28;20293;-61
2021/09/22 05:35:07;;;;;;;9.25;6.70;;;11.20;99.90;;;;;;5018298;28;20476;-60
2021/09/22 05:37:35;;;;;;;7.13;5.93;;;11.20;99.90;;;;;;5020331;28;20203;-60
2021/09/22 05:40:03;;;;;;;8.30;7.03;;;11.20;99.90;;;;;;5012539;28;20215;-61
2021/09/22 05:42:31;;;;;;;10.27;7.43;;;11.20;99.90;;;;;;5008584;28;20297;-62
2021/09/22 05:44:58;;;;;;;9.15;7.13;;;11.00;99.90;;;;;;5014159;28;20270;-62
2021/09/22 05:47:27;;;;;;;9.38;6.60;;;11.00;99.90;;;;;;5014820;28;20227;-63
2021/09/22 05:49:54;;;;;;;9.18;7.38;;;11.00;99.90;;;;;;5019483;28;20510;-57
2021/09/22 05:52:22;;;;;;;9.85;6.60;;;11.00;99.90;;;;;;5009658;28;20459;-59
2021/09/22 05:54:50;;;;;;;8.55;6.47;;;11.00;99.90;;;;;;4995880;28;20522;-59
2021/09/22 05:57:17;;;;;;;5.65;5.13;;;11.20;99.90;;;;;;5018801;28;20198;-59
2021/09/22 05:59:47;;;;;;;7.90;5.30;;;11.40;99.90;;;;;;5015131;28;20357;-58
2021/09/22 06:02:14;;;;;;;9.50;6.35;;;11.50;99.90;;;;;;5013175;28;20517;-63
2021/09/22 06:04:41;;;;;;;8.35;6.97;;;11.50;99.90;;;;;;5014022;28;20240;-62
2021/09/22 06:07:08;;;;;;;7.65;6.80;;;11.80;99.90;;;;;;5020398;28;20211;-62
2021/09/22 06:09:35;;;;;;;7.85;6.55;;;12.00;99.90;;;;;;5020879;28;20261;-61
2021/09/22 06:12:03;;;;;;;8.45;6.10;;;12.00;99.90;;;;;;5013735;28;20204;-64
2021/09/22 06:14:31;;;;;;;7.13;5.72;;;11.90;99.90;;;;;;5019903;28;20230;-60
2021/09/22 06:16:58;;;;;;;9.88;7.00;;;11.80;99.90;;;;;;5014262;28;20251;-60
2021/09/22 06:19:25;;;;;;;7.03;6.22;;;11.70;99.90;;;;;;5012529;28;20362;-61
2021/09/22 06:21:52;;;;;;;10.45;6.13;;;11.60;99.90;;;;;;5014518;28;20596;-60
2021/09/22 06:24:37;;;;;;;7.47;6.70;;;11.80;99.90;;;;;;5018953;28;20216;-60
2021/09/22 06:27:04;;;;;;;7.03;5.75;;;11.70;99.90;;;;;;5009168;28;20215;-59
2021/09/22 06:29:31;;;;;;;5.88;5.38;;;11.60;99.90;;;;;;5021969;28;20208;-59
2021/09/22 06:31:59;;;;;;;5.57;5.07;;;11.40;99.90;;;;;;5021612;28;20210;-58
2021/09/22 06:34:26;;;;;;;5.80;4.88;;;11.20;99.90;;;;;;5016404;28;20266;-62
2021/09/22 06:36:53;;;;;;;5.72;5.13;;;11.10;99.90;;;;;;5022042;28;20225;-60
2021/09/22 06:39:21;;;;;;;6.55;5.13;;;11.00;99.90;;;;;;5018540;28;20206;-61
2021/09/22 06:41:48;;;;;;;7.75;6.00;;;10.80;99.90;;;;;;5014266;28;20249;-59
2021/09/22 06:44:15;;;;;;;8.88;6.60;;;10.70;99.90;;;;;;5020183;28;20567;-62
2021/09/22 06:46:43;;;;;;;7.70;6.65;;;10.70;99.90;;;;;;5018699;28;20220;-53
2021/09/22 06:49:10;;;;;;;9.20;6.90;;;10.80;99.90;;;;;;5010974;28;20202;-59
2021/09/22 06:51:37;;;;;;;8.20;7.03;;;10.80;99.90;;;;;;4998884;28;20207;-59
2021/09/22 06:54:04;;;;;;;8.95;6.13;;;10.70;99.90;;;;;;5016406;28;20268;-59
2021/09/22 06:56:32;;;;;;;7.03;6.32;;;10.70;99.90;;;;;;5015974;28;20198;-63
2021/09/22 06:58:59;;;;;;;7.82;7.03;;;10.70;99.90;;;;;;5017700;28;20479;-58
2021/09/22 07:01:26;;;;;;;8.15;7.32;;;10.80;99.90;;;;;;5019277;28;20202;-62
2021/09/22 07:03:54;;;;;;;8.65;6.80;;;10.70;99.90;;;;;;5022254;28;20222;-58
2021/09/22 07:06:22;;;;;;;9.10;7.18;;;10.60;99.90;;;;;;5008671;28;20209;-57
2021/09/22 07:08:49;;;;;;;7.50;6.38;;;10.50;99.90;;;;;;5022143;28;20416;-57
2021/09/22 07:11:16;;;;;;;9.73;8.40;;;10.50;99.90;;;;;;5004494;28;20214;-57
2021/09/22 07:13:43;;;;;;;8.77;6.60;;;10.60;99.90;;;;;;5005384;28;20253;-59
2021/09/22 07:16:15;;;;;;;14.02;8.15;;;10.80;99.90;;;;;;5012384;28;20212;-56
2021/09/22 07:18:45;;;;;;;6.00;5.47;;;10.80;99.90;;;;;;5018207;28;20203;-59
2021/09/22 07:21:14;;;;;;;7.88;6.93;;;10.80;99.90;;;;;;5021775;28;20222;-58
2021/09/22 07:23:42;;;;;;;6.70;6.00;;;10.80;99.90;;;;;;5021255;28;20268;-60
2021/09/22 07:26:09;;;;;;;5.38;4.88;;;11.00;99.90;;;;;;5005943;28;20211;-57
2021/09/22 07:28:37;;;;;;;5.20;4.30;;;11.10;99.90;;;;;;5016074;28;20244;-61
2021/09/22 07:31:06;;;;;;;5.50;4.90;;;11.00;99.90;;;;;;5007917;28;20559;-57
2021/09/22 07:33:33;;;;;;;6.85;5.35;;;11.10;99.90;;;;;;5021812;28;20222;-61
2021/09/22 07:36:00;;;;;;;7.65;6.15;;;11.10;99.90;;;;;;5018154;28;20465;-57
2021/09/22 07:38:27;;;;;;;10.63;6.25;;;11.20;99.90;;;;;;5013750;28;20199;-55
2021/09/22 07:40:55;;;;;;;6.35;5.78;;;11.10;99.90;;;;;;5009775;28;20203;-56
2021/09/22 07:43:23;;;;;;;9.88;8.15;;;11.20;99.90;;;;;;5013506;28;20272;-57
2021/09/22 07:45:51;;;;;;;12.45;7.85;;;11.20;99.90;;;;;;5007923;28;20255;-59
2021/09/22 07:48:18;;;;;;;6.10;5.50;;;11.20;99.90;;;;;;5014966;28;20231;-56
2021/09/22 07:50:45;;;;;;;7.95;5.95;;;11.30;99.90;;;;;;5016048;28;20286;-53
2021/09/22 07:53:13;;;;;;;7.57;6.75;;;11.50;99.90;;;;;;5021661;28;20278;-54
2021/09/22 07:55:40;;;;;;;14.80;7.22;;;11.80;99.90;;;;;;5013640;28;20270;-58
2021/09/22 07:58:08;;;;;;;7.35;6.07;;;11.80;99.90;;;;;;5010487;28;20204;-57
2021/09/22 08:00:35;;;;;;;6.03;5.07;;;12.00;99.90;;;;;;5011962;28;20199;-52
2021/09/22 08:03:02;;;;;;;4.35;3.95;;;12.10;99.90;;;;;;5017985;28;20419;-57
2021/09/22 08:05:32;;;;;;;6.30;5.53;;;12.30;99.90;;;;;;4998751;28;20212;-58
2021/09/22 08:07:59;;;;;;;4.53;4.10;;;12.30;99.90;;;;;;5014587;28;20228;-56
2021/09/22 08:10:26;;;;;;;9.43;5.68;;;12.30;99.90;;;;;;5005473;28;20211;-57
2021/09/22 08:12:53;;;;;;;7.10;4.60;;;12.40;99.90;;;;;;5016720;28;20231;-55
2021/09/22 08:15:20;;;;;;;5.97;4.90;;;12.30;99.90;;;;;;5010609;28;20254;-53
2021/09/22 08:17:48;;;;;;;7.43;5.30;;;12.20;99.90;;;;;;5007004;28;20211;-59
2021/09/22 08:20:16;;;;;;;6.70;5.20;;;12.50;99.90;;;;;;5020707;28;20246;-59
2021/09/22 08:22:45;;;;;;;5.15;4.65;;;12.50;99.90;;;;;;5015454;28;20270;-55
2021/09/22 08:25:12;;;;;;;5.70;4.85;;;12.70;99.90;;;;;;5009893;28;20204;-59
2021/09/22 08:27:40;;;;;;;16.65;5.75;;;12.80;99.90;;;;;;5020831;28;20208;-55
2021/09/22 08:30:08;;;;;;;5.55;5.05;;;13.20;99.90;;;;;;5008942;28;20239;-58
2021/09/22 08:32:36;;;;;;;6.72;5.25;;;13.40;99.90;;;;;;5020145;28;20493;-57
2021/09/22 08:35:03;;;;;;;4.00;3.67;;;14.10;99.90;;;;;;5005808;28;20282;-54
2021/09/22 08:37:30;;;;;;;5.28;4.60;;;14.20;99.90;;;;;;5007415;28;20247;-56
2021/09/22 08:39:57;;;;;;;4.30;3.90;;;14.60;99.90;;;;;;5017214;28;20196;-57
2021/09/22 08:42:25;;;;;;;4.20;3.80;;;15.10;99.90;;;;;;5015913;28;20197;-56
2021/09/22 08:44:53;;;;;;;4.60;4.20;;;15.00;99.90;;;;;;5008628;28;20252;-58
2021/09/22 08:47:21;;;;;;;4.55;3.95;;;15.00;99.90;;;;;;5009085;28;20201;-59
2021/09/22 08:49:52;;;;;;;3.60;3.30;;;14.60;99.90;;;;;;5012043;28;20215;-55
2021/09/22 08:52:19;;;;;;;3.92;3.50;;;14.00;99.90;;;;;;5008345;28;20244;-60
2021/09/22 08:54:48;;;;;;;4.75;4.25;;;13.60;99.90;;;;;;5013586;28;20523;-57
2021/09/22 08:57:15;;;;;;;6.72;5.07;;;13.60;99.90;;;;;;5015017;28;20222;-60
2021/09/22 08:59:43;;;;;;;9.35;8.32;;;13.50;99.90;;;;;;5013686;28;20204;-57
2021/09/22 09:02:15;;;;;;;7.30;6.18;;;13.60;99.90;;;;;;5012445;28;20227;-54
2021/09/22 09:05:00;;;;;;;5.40;4.90;;;13.50;99.90;;;;;;5013077;28;20455;-56
2021/09/22 09:07:29;;;;;;;4.60;4.20;;;13.70;99.90;;;;;;5012122;28;20239;-58
2021/09/22 09:10:07;;;;;;;5.53;4.80;;;14.00;99.90;;;;;;5019224;28;20208;-58
2021/09/22 09:12:34;;;;;;;6.28;4.80;;;14.20;99.90;;;;;;5018186;28;20262;-59
2021/09/22 09:15:12;;;;;;;4.82;4.35;;;14.20;99.90;;;;;;5014580;28;20231;-59
2021/09/22 09:17:45;;;;;;;4.07;3.72;;;14.20;99.90;;;;;;5006959;28;20204;-61
2021/09/22 09:20:23;;;;;;;4.65;4.25;;;14.10;99.90;;;;;;5018643;28;20204;-60
2021/09/22 09:23:02;;;;;;;3.80;3.50;;;14.00;99.90;;;;;;5005612;28;20270;-55
2021/09/22 09:25:32;;;;;;;5.07;4.53;;;13.80;99.90;;;;;;5015412;28;20205;-62
2021/09/22 09:28:22;;;;;;;4.53;4.13;;;13.80;99.90;;;;;;5015861;28;20205;-57
2021/09/22 09:31:10;;;;;;;5.30;4.80;;;13.80;99.90;;;;;;5005210;28;20236;-59
2021/09/22 09:33:39;;;;;;;4.53;4.13;;;13.80;99.90;;;;;;5012976;28;20232;-59
2021/09/22 09:36:42;;;;;;;5.53;3.95;;;13.60;99.90;;;;;;5009280;28;20227;-56
2021/09/22 09:39:20;;;;;;;4.50;3.80;;;13.40;99.90;;;;;;4996404;28;20211;-59
2021/09/22 09:41:53;;;;;;;4.57;4.15;;;13.40;99.90;;;;;;5011630;28;20205;-55
2021/09/22 09:44:32;;;;;;;5.03;4.50;;;13.30;99.90;;;;;;5011677;28;20226;-55
2021/09/22 09:47:08;;;;;;;4.00;3.58;;;13.10;99.90;;;;;;5017576;28;20235;-62
2021/09/22 09:49:37;;;;;;;5.43;3.72;;;13.20;99.90;;;;;;5007225;28;20215;-58
2021/09/22 09:52:05;;;;;;;3.70;3.25;;;13.30;99.90;;;;;;5018706;28;20200;-60
2021/09/22 09:54:36;;;;;;;9.77;4.70;;;13.40;99.90;;;;;;5013360;28;20225;-60
2021/09/22 09:57:15;;;;;;;8.38;4.15;;;13.50;99.90;;;;;;5018995;28;20527;-60
2021/09/22 09:59:53;;;;;;;4.05;3.65;;;13.70;99.90;;;;;;5013147;28;20216;-58
2021/09/22 10:02:29;;;;;;;4.60;4.15;;;13.90;99.90;;;;;;5008427;28;20235;-59
2021/09/22 10:05:01;;;;;;;3.47;2.95;;;14.00;99.90;;;;;;5015430;28;20235;-58
2021/09/22 10:07:34;;;;;;;13.52;3.25;;;13.60;99.90;;;;;;5014359;28;20204;-53
2021/09/22 10:10:03;;;;;;;3.42;3.13;;;13.00;99.90;;;;;;5017143;28;20208;-59
2021/09/22 10:12:31;;;;;;;4.13;3.83;;;12.90;99.90;;;;;;5014549;28;20228;-59
2021/09/22 10:15:00;;;;;;;4.90;3.80;;;12.90;99.90;;;;;;5013833;28;20228;-57
2021/09/22 10:17:30;;;;;;;3.78;3.42;;;13.10;99.90;;;;;;5009071;28;20271;-59
2021/09/22 10:19:59;;;;;;;3.90;3.60;;;13.50;99.90;;;;;;5010149;28;20345;-60
2021/09/22 10:22:27;;;;;;;4.25;3.95;;;13.90;99.90;;;;;;5017478;28;20241;-60
2021/09/22 10:24:55;;;;;;;3.72;3.45;;;13.90;99.90;;;;;;5022730;28;20209;-58
2021/09/22 10:27:23;;;;;;;4.43;3.42;;;13.90;99.90;;;;;;5009947;28;20219;-62
2021/09/22 10:30:00;;;;;;;4.55;3.90;;;13.70;99.90;;;;;;5009433;28;20207;-53
2021/09/22 10:32:36;;;;;;;11.15;4.40;;;13.40;99.90;;;;;;5014435;28;20212;-58
2021/09/22 10:35:26;;;;;;;4.40;3.60;;;13.20;99.90;;;;;;5009769;28;20216;-60
2021/09/22 10:37:57;;;;;;;5.15;3.20;;;13.00;99.90;;;;;;5010968;28;20204;-52
2021/09/22 10:40:38;;;;;;;6.60;3.53;;;12.90;99.90;;;;;;5010243;28;20199;-59
2021/09/22 10:43:15;;;;;;;3.53;3.20;;;13.10;99.90;;;;;;5022035;28;20236;-59
2021/09/22 10:45:58;;;;;;;4.18;3.67;;;13.10;99.90;;;;;;5021853;28;20254;-61
2021/09/22 10:48:25;;;;;;;3.85;3.10;;;13.50;99.90;;;;;;5013603;28;20650;-58
2021/09/22 10:50:54;;;;;;;4.40;4.00;;;13.80;99.90;;;;;;5014438;28;20214;-56
2021/09/22 10:53:35;;;;;;;3.92;3.10;;;13.80;99.90;;;;;;5000915;28;20224;-55
2021/09/22 10:56:03;;;;;;;5.05;3.70;;;13.90;99.90;;;;;;5014596;28;20227;-59
2021/09/22 10:58:39;;;;;;;7.93;4.35;;;14.20;99.90;;;;;;5021027;28;20270;-60
2021/09/22 11:01:06;;;;;;;3.65;3.35;;;14.40;99.90;;;;;;5020107;28;20231;-57
2021/09/22 11:03:50;;;;;;;4.53;3.95;;;14.50;99.90;;;;;;5012791;28;20249;-56
2021/09/22 11:06:46;;;;;;;4.43;4.00;;;14.70;99.90;;;;;;5012137;28;20201;-58
2021/09/22 11:09:23;;;;;;;4.00;3.60;;;14.50;99.90;;;;;;5017139;28;20220;-61
2021/09/22 11:11:56;;;;;;;3.10;2.90;;;14.50;99.90;;;;;;5013896;28;20212;-57
2021/09/22 11:14:30;;;;;;;3.78;3.30;;;14.10;99.90;;;;;;5017288;28;20220;-57
2021/09/22 11:16:58;;;;;;;5.88;4.35;;;14.10;99.90;;;;;;5011912;28;20232;-58
2021/09/22 11:19:26;;;;;;;4.13;3.30;;;14.50;99.90;;;;;;5017592;28;20428;-59
2021/09/22 11:21:54;;;;;;;2.70;2.50;;;14.70;99.90;;;;;;5012823;28;20248;-56
2021/09/22 11:24:24;;;;;;;2.80;2.47;;;15.00;99.90;;;;;;5016951;28;20373;-53
2021/09/22 11:26:53;;;;;;;4.40;3.58;;;15.30;99.90;;;;;;5013596;28;20205;-61
2021/09/22 11:29:41;;;;;;;3.67;3.38;;;15.30;99.90;;;;;;5015667;28;20389;-58
2021/09/22 11:32:35;;;;;;;4.15;3.70;;;15.40;99.90;;;;;;5008556;28;20443;-56
2021/09/22 11:35:11;;;;;;;4.05;3.50;;;15.50;99.90;;;;;;5019634;28;20247;-58
2021/09/22 11:37:40;;;;;;;4.70;3.88;;;15.10;99.90;;;;;;5008180;28;20205;-55
2021/09/22 11:40:17;;;;;;;3.65;3.35;;;15.00;99.90;;;;;;5011538;28;20207;-58
2021/09/22 11:43:11;;;;;;;3.72;3.30;;;15.20;99.90;;;;;;5013716;28;20271;-54
2021/09/22 11:45:41;;;;;;;3.70;3.40;;;15.40;99.90;;;;;;5009907;28;20200;-51
2021/09/22 11:48:10;;;;;;;3.40;3.10;;;15.60;99.90;;;;;;5010526;28;20216;-53
2021/09/22 11:50:46;;;;;;;36.75;7.05;;;15.80;99.90;;;;;;5013969;28;20201;-57
2021/09/22 11:53:19;;;;;;;5.25;4.60;;;15.40;99.90;;;;;;5016312;28;20444;-59
2021/09/22 11:55:49;;;;;;;4.10;3.70;;;15.50;99.90;;;;;;5021285;28;20243;-58
2021/09/22 11:58:27;;;;;;;4.00;3.60;;;15.80;99.90;;;;;;5018049;28;20198;-57
2021/09/22 12:00:57;;;;;;;4.75;3.80;;;16.00;99.90;;;;;;5009628;28;20208;-59
2021/09/22 12:03:35;;;;;;;3.30;3.00;;;16.50;99.90;;;;;;5020572;28;20216;-56
2021/09/22 12:06:09;;;;;;;4.70;4.35;;;16.60;99.90;;;;;;5014275;28;20383;-60
2021/09/22 12:08:39;;;;;;;3.45;3.15;;;16.20;99.90;;;;;;5018413;28;20262;-57
2021/09/22 12:11:07;;;;;;;4.53;4.13;;;16.00;99.90;;;;;;5020115;28;20200;-57
2021/09/22 12:13:46;;;;;;;3.85;3.33;;;15.90;99.90;;;;;;5003807;28;20424;-58
2021/09/22 12:16:18;;;;;;;5.80;4.05;;;15.70;99.90;;;;;;5013434;28;20220;-59
2021/09/22 12:18:53;;;;;;;4.43;4.03;;;15.50;99.90;;;;;;5008308;28;20201;-51
2021/09/22 12:21:25;;;;;;;3.90;3.30;;;15.30;99.90;;;;;;5015370;28;20205;-57
2021/09/22 12:23:53;;;;;;;3.67;3.35;;;15.30;99.90;;;;;;5010929;28;20275;-60
2021/09/22 12:26:20;;;;;;;4.20;3.88;;;15.10;99.90;;;;;;5020689;28;20200;-58
2021/09/22 12:29:08;;;;;;;3.63;3.33;;;14.90;99.90;;;;;;5011402;28;20503;-63
2021/09/22 12:31:42;;;;;;;5.82;4.40;;;14.80;99.90;;;;;;5021248;28;20201;-58
2021/09/22 12:34:18;;;;;;;5.50;4.90;;;14.50;99.90;;;;;;5017894;28;20228;-59
2021/09/22 12:36:47;;;;;;;4.88;4.40;;;14.40;99.90;;;;;;5017875;28;20228;-58
2021/09/22 12:39:19;;;;;;;5.00;4.40;;;14.30;99.90;;;;;;5016648;28;20416;-60
2021/09/22 12:42:16;;;;;;;5.93;4.60;;;14.20;99.90;;;;;;5018805;28;20240;-57
2021/09/22 12:45:02;;;;;;;4.90;4.50;;;14.50;99.90;;;;;;4996893;28;20205;-61
2021/09/22 12:47:31;;;;;;;4.15;3.75;;;14.80;99.90;;;;;;5015293;28;20298;-58
2021/09/22 12:50:04;;;;;;;5.47;4.15;;;15.10;99.90;;;;;;5015742;28;20306;-59
2021/09/22 12:52:32;;;;;;;6.03;4.80;;;15.20;99.90;;;;;;5018059;28;20227;-58
2021/09/22 12:55:21;;;;;;;5.70;5.10;;;15.20;99.90;;;;;;5017306;28;20212;-51
2021/09/22 12:58:10;;;;;;;4.50;4.10;;;15.40;99.90;;;;;;5020016;28;20220;-56